createdAt,value
2023-05-05T00:00:04.397Z,2.90
2023-05-05T00:02:32.413Z,2.60
2023-05-05T00:04:59.474Z,2.70
2023-05-05T00:07:26.344Z,1.80
2023-05-05T00:09:53.198Z,2.70
2023-05-05T00:12:20.089Z,2.60
2023-05-05T00:14:46.942Z,3.10
2023-05-05T00:17:14.205Z,2.70
2023-05-05T00:19:41.731Z,2.20
2023-05-05T00:22:08.587Z,2.40
2023-05-05T00:24:36.141Z,2.30
2023-05-05T00:27:03.615Z,2.60
2023-05-05T00:29:30.726Z,2.40
2023-05-05T00:31:57.864Z,2.50
2023-05-05T00:34:24.715Z,2.80
2023-05-05T00:36:51.607Z,2.20
2023-05-05T00:39:18.424Z,2.60
2023-05-05T00:41:45.284Z,2.00
2023-05-05T00:44:12.565Z,2.30
2023-05-05T00:46:40.691Z,2.70
2023-05-05T00:49:07.708Z,2.30
2023-05-05T00:51:34.587Z,3.30
2023-05-05T00:54:01.499Z,2.30
2023-05-05T00:56:28.817Z,2.90
2023-05-05T00:58:55.740Z,2.70
2023-05-05T01:01:23.194Z,2.60
2023-05-05T01:03:50.233Z,2.60
2023-05-05T01:06:28.184Z,3.10
2023-05-05T01:09:20.339Z,3.00
2023-05-05T01:12:07.750Z,2.30
2023-05-05T01:14:39.811Z,2.70
2023-05-05T01:17:33.774Z,2.80
2023-05-05T01:20:16.986Z,2.20
2023-05-05T01:22:47.752Z,2.90
2023-05-05T01:25:54.143Z,3.00
2023-05-05T01:28:55.328Z,2.40
2023-05-05T01:31:52.137Z,3.20
2023-05-05T01:34:33.177Z,2.40
2023-05-05T01:37:30.766Z,2.50
2023-05-05T01:40:04.127Z,3.20
2023-05-05T01:42:31.179Z,3.30
2023-05-05T01:44:58.005Z,3.80
2023-05-05T01:47:24.887Z,3.50
2023-05-05T01:49:52.237Z,2.90
2023-05-05T01:52:19.090Z,2.80
2023-05-05T01:54:46.026Z,3.40
2023-05-05T01:57:13.657Z,3.00
2023-05-05T01:59:40.642Z,2.80
2023-05-05T02:02:09.058Z,2.90
2023-05-05T02:04:37.226Z,3.00
2023-05-05T02:07:04.146Z,3.20
2023-05-05T02:09:31.061Z,3.00
2023-05-05T02:11:58.486Z,3.90
2023-05-05T02:14:29.870Z,3.40
2023-05-05T02:16:57.246Z,3.70
2023-05-05T02:19:28.729Z,3.40
2023-05-05T02:21:55.653Z,3.70
2023-05-05T02:24:22.523Z,3.70
2023-05-05T02:26:49.436Z,4.10
2023-05-05T02:29:21.539Z,3.20
2023-05-05T02:31:51.004Z,5.10
2023-05-05T02:34:24.240Z,4.80
2023-05-05T02:36:53.597Z,4.50
2023-05-05T02:39:25.196Z,4.30
2023-05-05T02:41:52.306Z,3.80
2023-05-05T02:44:23.688Z,4.00
2023-05-05T02:46:51.294Z,3.70
2023-05-05T02:49:18.389Z,3.70
2023-05-05T02:51:45.315Z,4.00
2023-05-05T02:54:19.216Z,4.70
2023-05-05T02:56:48.787Z,3.60
2023-05-05T02:59:33.652Z,3.70
2023-05-05T03:02:18.187Z,4.10
2023-05-05T03:05:13.363Z,4.60
2023-05-05T03:07:53.173Z,4.00
2023-05-05T03:10:22.084Z,4.00
2023-05-05T03:12:56.144Z,3.50
2023-05-05T03:15:48.264Z,4.00
2023-05-05T03:18:17.783Z,3.10
2023-05-05T03:20:47.803Z,3.80
2023-05-05T03:23:18.447Z,3.50
2023-05-05T03:25:47.453Z,3.90
2023-05-05T03:28:20.518Z,3.50
2023-05-05T03:30:47.530Z,4.30
2023-05-05T03:33:15.548Z,3.90
2023-05-05T03:35:42.511Z,3.00
2023-05-05T03:38:10.943Z,3.40
2023-05-05T03:40:44.292Z,2.50
2023-05-05T03:43:13.813Z,2.10
2023-05-05T03:45:40.809Z,2.90
2023-05-05T03:48:09.906Z,2.70
2023-05-05T03:50:38.439Z,3.20
2023-05-05T03:53:05.519Z,3.00
2023-05-05T03:55:32.889Z,3.10
2023-05-05T03:57:59.954Z,3.00
2023-05-05T04:00:27.665Z,3.10
2023-05-05T04:02:55.295Z,3.20
2023-05-05T04:05:23.136Z,3.20
2023-05-05T04:07:50.321Z,3.50
2023-05-05T04:10:17.470Z,3.30
2023-05-05T04:12:44.429Z,3.10
2023-05-05T04:15:14.951Z,3.60
2023-05-05T04:17:42.108Z,3.90
2023-05-05T04:20:09.767Z,3.50
2023-05-05T04:22:37.083Z,3.50
2023-05-05T04:25:04.770Z,3.20
2023-05-05T04:27:31.735Z,3.40
2023-05-05T04:29:59.268Z,4.20
2023-05-05T04:32:27.165Z,3.20
2023-05-05T04:34:54.739Z,3.60
2023-05-05T04:37:22.464Z,3.10
2023-05-05T04:39:53.003Z,3.30
2023-05-05T04:42:20.311Z,3.10
2023-05-05T04:44:47.301Z,3.30
2023-05-05T04:47:14.875Z,3.10
2023-05-05T04:49:42.250Z,4.00
2023-05-05T04:52:09.202Z,3.60
2023-05-05T04:54:37.612Z,2.90
2023-05-05T04:57:04.474Z,3.00
2023-05-05T04:59:31.377Z,3.60
2023-05-05T05:01:58.303Z,2.90
2023-05-05T05:04:27.181Z,3.10
2023-05-05T05:06:55.312Z,3.10
2023-05-05T05:09:23.195Z,2.90
2023-05-05T05:11:50.101Z,2.50
2023-05-05T05:14:17.326Z,3.20
2023-05-05T05:16:44.314Z,3.90
2023-05-05T05:19:11.313Z,3.40
2023-05-05T05:21:38.200Z,2.80
2023-05-05T05:24:05.266Z,3.90
2023-05-05T05:26:32.680Z,2.80
2023-05-05T05:28:59.935Z,2.70
2023-05-05T05:31:27.319Z,3.20
2023-05-05T05:33:56.287Z,3.10
2023-05-05T05:36:23.615Z,3.20
2023-05-05T05:38:53.029Z,3.20
2023-05-05T05:41:19.897Z,3.50
2023-05-05T05:43:46.909Z,2.90
2023-05-05T05:46:13.895Z,3.30
2023-05-05T05:48:41.935Z,2.50
2023-05-05T05:51:08.827Z,2.10
2023-05-05T05:53:35.680Z,2.70
2023-05-05T05:56:02.655Z,2.00
2023-05-05T05:58:29.498Z,2.40
2023-05-05T06:00:59.294Z,2.30
2023-05-05T06:03:26.904Z,2.50
2023-05-05T06:05:54.287Z,1.90
2023-05-05T06:08:24.345Z,2.60
2023-05-05T06:10:52.924Z,2.40
2023-05-05T06:13:20.472Z,2.00
2023-05-05T06:15:49.918Z,2.20
2023-05-05T06:18:17.660Z,2.40
2023-05-05T06:20:44.957Z,2.10
2023-05-05T06:23:13.010Z,2.70
2023-05-05T06:28:10.298Z,2.50
2023-05-05T06:30:37.770Z,2.60
2023-05-05T06:33:20.025Z,2.00
2023-05-05T06:36:13.898Z,2.30
2023-05-05T06:38:40.807Z,2.10
2023-05-05T06:41:07.763Z,1.80
2023-05-05T06:43:37.866Z,2.20
2023-05-05T06:46:07.504Z,1.90
2023-05-05T06:48:34.354Z,2.00
2023-05-05T06:51:01.347Z,2.40
2023-05-05T06:53:28.342Z,2.40
2023-05-05T06:55:55.165Z,4.20
2023-05-05T06:58:22.086Z,2.20
2023-05-05T07:00:48.946Z,1.90
2023-05-05T07:03:16.100Z,2.00
2023-05-05T07:05:43.584Z,2.10
2023-05-05T07:08:11.413Z,1.60
2023-05-05T07:10:38.345Z,1.80
2023-05-05T07:13:08.480Z,2.90
2023-05-05T07:15:35.709Z,1.40
2023-05-05T07:18:02.715Z,1.40
2023-05-05T07:20:29.737Z,1.50
2023-05-05T07:22:56.761Z,1.90
2023-05-05T07:25:23.683Z,1.60
2023-05-05T07:27:50.499Z,1.60
2023-05-05T07:30:18.986Z,2.90
2023-05-05T07:32:46.768Z,2.70
2023-05-05T07:35:13.842Z,1.70
2023-05-05T07:37:40.660Z,1.80
2023-05-05T07:40:08.790Z,2.20
2023-05-05T07:42:36.076Z,1.60
2023-05-05T07:45:03.782Z,5.90
2023-05-05T07:47:30.709Z,7.20
2023-05-05T07:49:57.763Z,6.60
2023-05-05T07:52:37.040Z,3.00
2023-05-05T07:55:11.866Z,8.60
2023-05-05T07:57:39.128Z,4.20
2023-05-05T08:00:07.140Z,2.20
2023-05-05T08:02:40.458Z,1.60
2023-05-05T08:05:08.234Z,1.60
2023-05-05T08:07:36.744Z,1.70
2023-05-05T08:10:03.796Z,1.80
2023-05-05T08:12:30.855Z,1.70
2023-05-05T08:14:57.717Z,1.50
2023-05-05T08:17:27.116Z,2.20
2023-05-05T08:19:54.039Z,1.40
2023-05-05T08:22:24.896Z,2.50
2023-05-05T08:24:51.872Z,1.90
2023-05-05T08:27:18.744Z,1.80
2023-05-05T08:30:11.193Z,2.40
2023-05-05T08:32:38.785Z,1.80
2023-05-05T08:35:06.755Z,1.70
2023-05-05T08:37:34.204Z,1.40
2023-05-05T08:40:10.139Z,2.00
2023-05-05T08:42:39.157Z,1.70
2023-05-05T08:45:10.433Z,1.80
2023-05-05T08:47:38.302Z,1.40
2023-05-05T08:50:06.116Z,1.70
2023-05-05T08:52:45.578Z,1.80
2023-05-05T08:55:27.977Z,1.50
2023-05-05T08:57:56.939Z,2.20
2023-05-05T09:00:24.536Z,1.80
2023-05-05T09:02:51.555Z,1.70
2023-05-05T09:05:18.557Z,1.80
2023-05-05T09:07:46.847Z,1.90
2023-05-05T09:10:13.721Z,1.80
2023-05-05T09:12:41.742Z,1.50
2023-05-05T09:15:09.674Z,1.30
2023-05-05T09:17:36.950Z,1.80
2023-05-05T09:20:11.828Z,1.90
2023-05-05T09:22:43.826Z,1.40
2023-05-05T09:25:13.264Z,1.60
2023-05-05T09:27:43.429Z,1.70
2023-05-05T09:30:14.481Z,1.80
2023-05-05T09:32:49.017Z,1.40
2023-05-05T09:35:19.905Z,1.60
2023-05-05T09:37:47.138Z,1.70
2023-05-05T09:40:15.805Z,2.10
2023-05-05T09:42:42.993Z,1.40
2023-05-05T09:45:19.163Z,1.50
2023-05-05T09:47:46.955Z,1.60
2023-05-05T09:50:16.311Z,1.40
2023-05-05T09:52:46.718Z,2.00
2023-05-05T09:55:18.386Z,2.00
2023-05-05T10:00:18.164Z,1.90
2023-05-05T10:02:45.410Z,1.40
2023-05-05T10:05:16.332Z,1.30
2023-05-05T10:07:44.703Z,1.50
2023-05-05T10:10:16.584Z,1.40
2023-05-05T10:12:44.012Z,1.30
2023-05-05T10:15:12.057Z,1.60
2023-05-05T10:17:58.381Z,1.50
2023-05-05T10:20:37.223Z,1.40
2023-05-05T10:23:06.506Z,1.50
2023-05-05T10:25:38.682Z,1.40
2023-05-05T10:28:06.779Z,1.90
2023-05-05T10:30:37.058Z,1.40
2023-05-05T10:33:29.523Z,1.20
2023-05-05T10:35:53.455Z,1.00
2023-05-05T10:38:20.541Z,1.00
2023-05-05T10:40:48.796Z,1.10
2023-05-05T10:43:15.822Z,1.70
2023-05-05T10:45:42.865Z,1.30
2023-05-05T10:48:13.161Z,1.80
2023-05-05T10:53:26.177Z,1.50
2023-05-05T10:56:04.535Z,1.40
2023-05-05T10:58:47.030Z,1.10
2023-05-05T11:01:32.743Z,1.80
2023-05-05T11:04:22.651Z,1.60
2023-05-05T11:07:10.289Z,2.20
2023-05-05T11:12:21.125Z,1.70
2023-05-05T11:14:48.009Z,1.80
2023-05-05T11:17:46.823Z,1.40
2023-05-05T11:20:13.860Z,1.60
2023-05-05T11:23:02.262Z,5.00
2023-05-05T11:25:35.588Z,2.20
2023-05-05T11:28:16.573Z,1.80
2023-05-05T11:31:15.617Z,1.60
2023-05-05T11:33:42.574Z,1.70
2023-05-05T11:36:14.129Z,1.70
2023-05-05T11:39:02.670Z,1.50
2023-05-05T11:41:32.684Z,3.60
2023-05-05T11:44:19.381Z,2.40
2023-05-05T11:46:52.517Z,6.40
2023-05-05T11:49:36.062Z,3.90
2023-05-05T11:52:07.370Z,5.00
2023-05-05T11:54:41.582Z,2.60
2023-05-05T11:57:09.250Z,3.80
2023-05-05T11:59:38.864Z,2.60
2023-05-05T12:02:10.490Z,2.70
2023-05-05T12:04:39.589Z,8.90
2023-05-05T12:07:06.695Z,2.50
2023-05-05T12:09:33.632Z,3.00
2023-05-05T12:12:01.444Z,3.20
2023-05-05T12:14:29.134Z,1.60
2023-05-05T12:16:56.885Z,2.20
2023-05-05T12:19:24.426Z,2.50
2023-05-05T12:21:54.292Z,1.90
2023-05-05T12:24:21.137Z,1.50
2023-05-05T12:26:48.010Z,1.50
2023-05-05T12:29:17.675Z,1.30
2023-05-05T12:31:44.591Z,1.40
2023-05-05T12:34:11.621Z,1.40
2023-05-05T12:36:38.988Z,1.70
2023-05-05T12:39:06.520Z,1.40
2023-05-05T12:41:33.521Z,1.60
2023-05-05T12:44:01.621Z,1.60
2023-05-05T12:46:32.029Z,1.70
2023-05-05T12:49:06.581Z,1.40
2023-05-05T12:51:36.870Z,1.90
2023-05-05T12:54:13.062Z,1.60
2023-05-05T12:56:44.312Z,1.60
2023-05-05T12:59:32.197Z,1.40
2023-05-05T13:02:02.694Z,1.30
2023-05-05T13:04:29.752Z,1.10
2023-05-05T13:07:13.715Z,1.30
2023-05-05T13:09:40.966Z,1.60
2023-05-05T13:12:13.946Z,1.10
2023-05-05T13:14:41.278Z,1.40
2023-05-05T13:17:08.589Z,1.90
2023-05-05T13:19:42.671Z,1.90
2023-05-05T13:22:13.069Z,1.60
2023-05-05T13:24:51.913Z,1.50
2023-05-05T13:27:20.212Z,1.30
2023-05-05T13:29:47.880Z,1.40
2023-05-05T13:32:14.856Z,1.60
2023-05-05T13:34:43.628Z,1.40
2023-05-05T13:37:10.575Z,1.40
2023-05-05T13:39:37.711Z,2.30
2023-05-05T13:42:04.833Z,1.80
2023-05-05T13:44:32.075Z,1.90
2023-05-05T13:46:59.294Z,2.70
2023-05-05T13:49:27.189Z,1.80
2023-05-05T13:51:55.278Z,1.00
2023-05-05T13:54:22.162Z,1.70
2023-05-05T13:56:48.983Z,1.50
2023-05-05T13:59:15.920Z,1.60
2023-05-05T14:01:44.229Z,1.20
2023-05-05T14:04:11.138Z,1.20
2023-05-05T14:06:38.096Z,1.50
2023-05-05T14:09:06.452Z,1.10
2023-05-05T14:11:33.643Z,1.10
2023-05-05T14:14:00.897Z,1.10
2023-05-05T14:16:27.843Z,1.00
2023-05-05T14:18:54.711Z,1.40
2023-05-05T14:21:21.649Z,1.20
2023-05-05T14:23:51.613Z,1.00
2023-05-05T14:26:18.498Z,1.50
2023-05-05T14:28:49.937Z,1.20
2023-05-05T14:31:17.990Z,1.30
2023-05-05T14:33:44.852Z,1.30
2023-05-05T14:36:11.746Z,1.60
2023-05-05T14:38:38.665Z,1.50
2023-05-05T14:41:08.843Z,1.30
2023-05-05T14:43:38.854Z,1.30
2023-05-05T14:46:07.026Z,1.80
2023-05-05T14:49:02.330Z,1.00
2023-05-05T14:51:29.359Z,1.60
2023-05-05T14:54:48.138Z,1.00
2023-05-05T14:57:15.017Z,1.00
2023-05-05T14:59:41.815Z,1.40
2023-05-05T15:02:12.041Z,1.00
2023-05-05T15:04:38.855Z,0.80
2023-05-05T15:07:05.962Z,1.20
2023-05-05T15:09:32.842Z,1.00
2023-05-05T15:11:59.686Z,1.30
2023-05-05T15:14:26.647Z,1.60
2023-05-05T15:16:53.459Z,1.60
2023-05-05T15:19:20.390Z,1.40
2023-05-05T15:21:53.201Z,1.00
2023-05-05T15:24:20.986Z,1.70
2023-05-05T15:26:47.989Z,1.90
2023-05-05T15:29:16.612Z,1.20
2023-05-05T15:31:43.713Z,1.20
2023-05-05T15:34:10.650Z,1.20
2023-05-05T15:36:37.415Z,1.50
2023-05-05T15:39:04.633Z,2.00
2023-05-05T15:41:34.766Z,1.70
2023-05-05T15:44:03.268Z,2.10
2023-05-05T15:46:33.726Z,1.70
2023-05-05T15:49:00.678Z,2.00
2023-05-05T15:51:27.655Z,1.80
2023-05-05T15:53:54.601Z,2.00
2023-05-05T15:56:21.523Z,2.00
2023-05-05T15:58:48.393Z,1.90
2023-05-05T16:01:15.364Z,1.80
2023-05-05T16:03:42.309Z,1.70
2023-05-05T16:06:11.916Z,1.50
2023-05-05T16:08:38.984Z,1.80
2023-05-05T16:11:05.854Z,1.50
2023-05-05T16:13:32.685Z,1.30
2023-05-05T16:15:59.616Z,2.90
2023-05-05T16:18:26.930Z,8.20
2023-05-05T16:20:53.873Z,2.20
2023-05-05T16:23:20.929Z,1.60
2023-05-05T16:25:47.849Z,8.30
2023-05-05T16:28:14.702Z,3.30
2023-05-05T16:30:43.185Z,1.80
2023-05-05T16:33:10.163Z,1.40
2023-05-05T16:35:37.138Z,3.40
2023-05-05T16:38:04.245Z,2.00
2023-05-05T16:40:31.100Z,2.20
2023-05-05T16:42:58.010Z,1.90
2023-05-05T16:45:24.885Z,2.00
2023-05-05T16:47:51.732Z,1.70
2023-05-05T16:50:18.743Z,1.60
2023-05-05T16:52:45.684Z,2.00
2023-05-05T16:55:12.722Z,1.80
2023-05-05T16:57:39.621Z,1.50
2023-05-05T17:00:07.203Z,1.90
2023-05-05T17:02:35.439Z,1.40
2023-05-05T17:05:02.875Z,1.80
2023-05-05T17:07:29.761Z,2.80
2023-05-05T17:09:59.802Z,3.20
2023-05-05T17:12:26.637Z,2.90
2023-05-05T17:14:53.673Z,3.40
2023-05-05T17:19:47.693Z,3.00
2023-05-05T17:22:14.591Z,2.90
2023-05-05T17:24:41.473Z,2.40
2023-05-05T17:27:08.761Z,2.30
2023-05-05T17:29:40.957Z,2.40
2023-05-05T17:32:11.117Z,2.20
2023-05-05T17:37:29.596Z,2.20
2023-05-05T17:39:56.655Z,2.50
2023-05-05T17:42:23.894Z,2.70
2023-05-05T17:44:50.910Z,2.60
2023-05-05T17:47:22.549Z,2.50
2023-05-05T17:49:49.587Z,2.70
2023-05-05T17:52:16.536Z,2.40
2023-05-05T17:54:43.757Z,2.80
2023-05-05T17:57:10.624Z,3.00
2023-05-05T17:59:37.683Z,2.70
2023-05-05T18:02:04.712Z,3.40
2023-05-05T18:04:32.968Z,3.00
2023-05-05T18:07:03.335Z,3.90
2023-05-05T18:11:57.437Z,6.30
2023-05-05T18:14:24.850Z,6.80
2023-05-05T18:16:52.567Z,6.90
2023-05-05T18:19:20.953Z,5.80
2023-05-05T18:21:48.978Z,7.60
2023-05-05T18:24:20.381Z,7.00
2023-05-05T18:26:51.869Z,6.70
2023-05-05T18:29:19.432Z,5.90
2023-05-05T18:31:48.761Z,5.70
2023-05-05T18:34:17.041Z,5.90
2023-05-05T18:36:44.169Z,6.70
2023-05-05T18:39:11.578Z,6.30
2023-05-05T18:41:38.661Z,5.70
2023-05-05T18:44:05.574Z,6.40
2023-05-05T18:46:32.698Z,5.50
2023-05-05T18:49:00.747Z,6.10
2023-05-05T18:51:28.804Z,5.40
2023-05-05T18:53:55.803Z,4.80
2023-05-05T18:56:22.808Z,7.20
2023-05-05T18:58:49.811Z,7.60
2023-05-05T19:01:17.279Z,7.00
2023-05-05T19:03:48.210Z,3.40
2023-05-05T19:06:16.139Z,4.80
2023-05-05T19:08:43.998Z,3.60
2023-05-05T19:11:11.041Z,3.00
2023-05-05T19:16:11.726Z,3.30
2023-05-05T19:18:39.407Z,3.30
2023-05-05T19:21:06.456Z,3.00
2023-05-05T19:23:33.637Z,3.10
2023-05-05T19:26:00.895Z,3.00
2023-05-05T19:28:27.796Z,3.20
2023-05-05T19:30:54.811Z,3.00
2023-05-05T19:33:22.161Z,3.00
2023-05-05T19:35:49.147Z,2.90
2023-05-05T19:38:16.265Z,3.30
2023-05-05T19:40:43.259Z,2.70
2023-05-05T19:43:10.213Z,2.60
2023-05-05T19:45:37.295Z,2.60
2023-05-05T19:48:04.467Z,2.60
2023-05-05T19:50:31.806Z,2.50
2023-05-05T19:52:58.907Z,2.40
2023-05-05T19:55:26.045Z,2.50
2023-05-05T19:57:53.095Z,2.80
2023-05-05T20:00:20.096Z,2.80
2023-05-05T20:02:49.267Z,3.00
2023-05-05T20:05:17.921Z,3.00
2023-05-05T20:07:46.498Z,2.60
2023-05-05T20:10:13.714Z,2.70
2023-05-05T20:12:50.811Z,2.80
2023-05-05T20:15:19.411Z,2.80
2023-05-05T20:17:49.832Z,3.70
2023-05-05T20:20:18.966Z,2.80
2023-05-05T20:22:46.517Z,3.60
2023-05-05T20:25:15.384Z,3.70
2023-05-05T20:27:42.740Z,4.60
2023-05-05T20:30:10.915Z,3.60
2023-05-05T20:32:38.259Z,2.40
2023-05-05T20:35:08.665Z,3.10
2023-05-05T20:40:04.486Z,2.80
2023-05-05T20:42:31.708Z,3.80
2023-05-05T20:45:00.675Z,2.70
2023-05-05T20:47:27.642Z,2.70
2023-05-05T20:49:54.520Z,2.40
2023-05-05T20:52:21.465Z,2.70
2023-05-05T20:54:50.923Z,2.60
2023-05-05T20:57:18.164Z,3.00
2023-05-05T20:59:45.188Z,3.10
2023-05-05T21:02:12.366Z,2.70
2023-05-05T21:04:39.472Z,2.70
2023-05-05T21:07:06.696Z,2.90
2023-05-05T21:09:35.462Z,3.00
2023-05-05T21:12:02.579Z,2.80
2023-05-05T21:14:29.675Z,3.50
2023-05-05T21:16:56.810Z,2.40
2023-05-05T21:19:23.964Z,2.90
2023-05-05T21:21:51.324Z,3.60
2023-05-05T21:24:18.394Z,3.00
2023-05-05T21:26:45.519Z,3.70
2023-05-05T21:29:12.426Z,3.40
2023-05-05T21:31:39.430Z,3.30
2023-05-05T21:34:06.392Z,3.00
2023-05-05T21:36:34.103Z,3.10
2023-05-05T21:39:01.289Z,3.50
2023-05-05T21:41:28.402Z,3.40
2023-05-05T21:43:55.813Z,3.30
2023-05-05T21:46:22.857Z,2.90
2023-05-05T21:48:50.112Z,3.10
2023-05-05T21:51:17.535Z,3.10
2023-05-05T21:53:44.512Z,3.10
2023-05-05T21:56:11.430Z,3.20
2023-05-05T21:58:38.403Z,3.80
2023-05-05T22:01:05.603Z,3.10
2023-05-05T22:03:34.305Z,2.90
2023-05-05T22:06:01.415Z,3.00
2023-05-05T22:08:28.392Z,2.80
2023-05-05T22:10:55.295Z,3.30
2023-05-05T22:13:22.374Z,3.00
2023-05-05T22:15:49.423Z,3.00
2023-05-05T22:18:16.376Z,3.20
2023-05-05T22:20:47.042Z,3.10
2023-05-05T22:23:14.241Z,3.50
2023-05-05T22:25:41.204Z,3.10
2023-05-05T22:28:08.196Z,2.70
2023-05-05T22:30:35.210Z,2.90
2023-05-05T22:33:02.182Z,2.80
2023-05-05T22:35:29.110Z,2.10
2023-05-05T22:37:56.124Z,2.90
2023-05-05T22:40:23.030Z,2.60
2023-05-05T22:42:49.969Z,2.60
2023-05-05T22:45:16.832Z,2.50
2023-05-05T22:47:44.332Z,2.60
2023-05-05T22:50:11.373Z,2.80
2023-05-05T22:52:38.248Z,2.70
2023-05-05T22:55:05.530Z,2.60
2023-05-05T22:57:34.612Z,2.90
2023-05-05T23:00:02.893Z,2.60
2023-05-05T23:02:29.923Z,3.10
2023-05-05T23:04:56.934Z,2.30
2023-05-05T23:07:23.933Z,2.40
2023-05-05T23:09:50.839Z,1.90
2023-05-05T23:12:18.062Z,2.10
2023-05-05T23:14:44.927Z,2.00
2023-05-05T23:17:11.888Z,2.10
2023-05-05T23:19:38.795Z,2.20
2023-05-05T23:22:06.023Z,2.50
2023-05-05T23:24:32.957Z,2.30
2023-05-05T23:27:02.301Z,2.10
2023-05-05T23:29:29.397Z,2.90
2023-05-05T23:31:56.985Z,2.90
2023-05-05T23:34:23.948Z,2.60
2023-05-05T23:36:50.853Z,2.30
2023-05-05T23:39:17.814Z,2.20
2023-05-05T23:41:44.742Z,2.00
2023-05-05T23:44:11.559Z,2.00
2023-05-05T23:46:38.466Z,2.70
2023-05-05T23:49:05.457Z,2.10
2023-05-05T23:51:32.455Z,2.00
2023-05-05T23:53:59.643Z,2.50
2023-05-05T23:56:26.945Z,1.90
2023-05-05T23:58:54.010Z,2.40
